Skip Navigation LinksHome page > Weather > Current weather Skip Navigation Links

Current Weather

Ben-Gurion Intl Apt, Tel Aviv, Israel

For information only: do not use for flight planning or navigation.
Latest weather
Observation time Tuesday, October 21, 2014 4:50 AM IDT
Local time Tuesday, October 21, 2014 5:08 AM IDT
Flight conditions Visual Meteorological Conditions
Winds
Wind direction Southeast (140°)
Wind speed 5 mph
Visibility 6.2 mi.
Sky condition
Ceiling unlimited
Sky clear
Temperature 63°F
Dewpoint 50°F
Altimeter 29.97 in.Hg
Derived measurements
Relative humidity 63%
Density altitude 512 ft.
Remarks
Ceiling and visibility OK.
No significant changes expected in the next two hours.
METAR LLBG 210150Z 14004KT CAVOK 17/10 Q1015 NOSIG RMK SCT058

Settings

Location code

InnerDrive.Weather 4.0.5399.0 Release CLR 4.0.30319.34014
Copyright ©2014 Inner Drive Technology. All rights reserved. Portions Copyright ©1986-2014 David Braverman.

Find weather

Site navigation


Skip Navigation Links

Place info

Page info

PayPal - The safer, easier way to pay online!

Return home.

Copyright ©2014 Inner Drive Technology. Purveyors of fine, hand-crafted computer software. Page printed 2014-10-21T02:08:48 UTC.